Time;durP1;ratioP1;P1;durP2;ratioP2;P2;SDS_P1;SDS_P2;PMS_P1;PMS_P2;Temp;Humidity;BMP_temperature;BMP_pressure;BME280_temperature;BME280_humidity;BME280_pressure;Samples;Min_cycle;Max_cycle;Signal;HPM_P1;HPM_P2
2022/04/13 05:00:36;;;;;;;3.30;3.00;;;11.40;97.20;;;;;;1694394;29;20235;-71
2022/04/13 05:01:27;;;;;;;5.82;3.50;;;11.40;97.20;;;;;;1694090;29;20218;-72
2022/04/13 05:02:19;;;;;;;3.57;3.27;;;11.40;97.20;;;;;;1694237;29;20198;-71
2022/04/13 05:03:10;;;;;;;3.40;3.03;;;11.50;97.20;;;;;;1694114;29;20448;-71
2022/04/13 05:04:02;;;;;;;3.40;3.10;;;11.50;97.20;;;;;;1694354;29;20202;-71
2022/04/13 05:04:53;;;;;;;4.47;3.38;;;11.50;97.20;;;;;;1694318;29;20251;-71
2022/04/13 05:05:44;;;;;;;5.20;3.73;;;11.50;97.20;;;;;;1694360;29;20211;-71
2022/04/13 05:06:35;;;;;;;3.83;3.38;;;11.50;97.20;;;;;;1694259;29;20240;-71
2022/04/13 05:07:27;;;;;;;3.73;3.30;;;11.60;97.20;;;;;;1694247;29;20216;-71
2022/04/13 05:08:17;;;;;;;5.78;3.65;;;11.60;97.20;;;;;;1693535;29;20240;-71
2022/04/13 05:09:09;;;;;;;6.13;3.63;;;11.60;97.20;;;;;;1694367;29;20208;-71
2022/04/13 05:10:00;;;;;;;5.00;3.55;;;11.60;97.20;;;;;;1693948;29;20227;-71
2022/04/13 05:10:52;;;;;;;4.07;3.78;;;11.70;97.20;;;;;;1694221;29;20203;-71
2022/04/13 05:11:43;;;;;;;3.40;3.10;;;11.70;97.20;;;;;;1694140;29;20626;-71
2022/04/13 05:12:43;;;;;;;4.10;3.40;;;11.70;97.20;;;;;;1694246;29;20218;-72
2022/04/13 05:13:34;;;;;;;4.00;3.55;;;11.70;97.20;;;;;;1694202;29;20243;-72
2022/04/13 05:14:26;;;;;;;3.40;3.10;;;11.70;97.20;;;;;;1694294;29;20204;-72
2022/04/13 05:15:17;;;;;;;4.30;3.90;;;11.70;97.20;;;;;;1694301;29;20204;-71
2022/04/13 05:16:10;;;;;;;3.67;3.37;;;11.80;97.20;;;;;;1694246;29;20311;-71
2022/04/13 05:17:01;;;;;;;5.07;3.03;;;11.70;97.20;;;;;;1694246;29;20970;-71
2022/04/13 05:17:53;;;;;;;4.20;3.55;;;11.80;97.20;;;;;;1694251;29;20212;-71
2022/04/13 05:18:45;;;;;;;4.00;3.60;;;11.80;97.20;;;;;;1693963;29;20617;-71
2022/04/13 05:19:37;;;;;;;4.03;3.60;;;11.80;97.20;;;;;;1694237;29;20267;-71
2022/04/13 05:20:27;;;;;;;3.65;3.30;;;11.80;97.20;;;;;;1694276;29;20240;-71
2022/04/13 05:21:19;;;;;;;4.10;3.67;;;11.80;97.20;;;;;;1694251;29;20200;-72
2022/04/13 05:22:10;;;;;;;4.43;3.70;;;11.80;97.20;;;;;;1694299;29;20203;-71
2022/04/13 05:23:01;;;;;;;4.00;3.60;;;11.80;97.20;;;;;;1693625;29;20198;-71
2022/04/13 05:23:52;;;;;;;3.65;3.35;;;11.80;97.20;;;;;;1687637;29;20727;-71
2022/04/13 05:24:44;;;;;;;3.50;2.80;;;11.80;97.20;;;;;;1690298;29;20633;-71
2022/04/13 05:25:35;;;;;;;4.00;3.70;;;11.80;97.20;;;;;;1694102;29;20239;-71
2022/04/13 05:26:26;;;;;;;3.60;3.30;;;11.80;97.20;;;;;;1694365;29;20200;-71
2022/04/13 05:27:17;;;;;;;4.53;3.53;;;11.90;97.20;;;;;;1694270;29;20627;-71
2022/04/13 05:28:10;;;;;;;4.65;3.80;;;11.90;97.20;;;;;;1693915;29;20199;-72
2022/04/13 05:29:01;;;;;;;4.15;3.75;;;11.90;97.20;;;;;;1694104;29;20200;-71
2022/04/13 05:29:52;;;;;;;4.17;3.80;;;11.90;97.20;;;;;;1693961;29;20236;-71
2022/04/13 05:30:43;;;;;;;4.60;3.67;;;11.90;97.20;;;;;;1694252;29;20250;-71
2022/04/13 05:31:36;;;;;;;5.00;3.97;;;11.90;97.20;;;;;;1694184;29;20207;-71
2022/04/13 05:32:27;;;;;;;3.70;3.35;;;12.00;97.20;;;;;;1691244;29;20228;-71
2022/04/13 05:33:18;;;;;;;4.90;3.10;;;12.00;97.20;;;;;;1693884;29;20679;-72
2022/04/13 05:34:09;;;;;;;4.40;3.60;;;12.00;97.20;;;;;;1687884;29;20201;-71
2022/04/13 05:35:02;;;;;;;5.83;3.70;;;12.10;97.20;;;;;;1687608;29;20200;-71
2022/04/13 05:35:53;;;;;;;4.20;3.42;;;12.10;97.20;;;;;;1687644;29;20965;-72
2022/04/13 05:36:44;;;;;;;4.50;3.30;;;12.20;97.20;;;;;;1687778;29;20664;-71
2022/04/13 05:37:35;;;;;;;3.78;3.38;;;12.20;97.20;;;;;;1687657;29;20236;-72
2022/04/13 05:38:27;;;;;;;4.60;3.67;;;12.30;97.20;;;;;;1693182;29;20200;-71
2022/04/13 05:39:18;;;;;;;3.85;3.55;;;12.30;97.20;;;;;;1694072;29;20211;-71
2022/04/13 05:40:11;;;;;;;3.93;3.53;;;12.30;97.20;;;;;;1688800;29;20204;-70
2022/04/13 05:41:01;;;;;;;4.75;4.35;;;12.40;97.20;;;;;;1699393;29;20701;-71
2022/04/13 05:41:53;;;;;;;4.40;4.00;;;12.40;97.20;;;;;;1695573;29;20577;-72
2022/04/13 05:42:44;;;;;;;4.05;3.75;;;12.50;97.20;;;;;;1694939;29;20239;-71
2022/04/13 05:43:36;;;;;;;10.50;4.30;;;12.50;97.20;;;;;;1700513;29;20231;-71
2022/04/13 05:44:26;;;;;;;10.23;4.18;;;12.60;97.20;;;;;;1694113;29;20210;-71
2022/04/13 05:45:18;;;;;;;16.53;4.70;;;12.60;97.20;;;;;;1694031;29;20210;-71
2022/04/13 05:46:09;;;;;;;10.07;4.18;;;12.60;97.20;;;;;;1688678;29;20258;-71
2022/04/13 05:47:02;;;;;;;10.90;4.80;;;12.70;97.20;;;;;;1694067;29;20223;-71
2022/04/13 05:47:52;;;;;;;6.68;4.10;;;12.70;97.20;;;;;;1694097;29;20211;-71
2022/04/13 05:48:44;;;;;;;5.73;4.70;;;12.80;97.20;;;;;;1693772;29;20204;-71
2022/04/13 05:49:35;;;;;;;7.85;4.43;;;12.80;97.20;;;;;;1693907;29;20676;-71
2022/04/13 05:50:27;;;;;;;7.73;4.20;;;12.90;97.20;;;;;;1693951;29;20240;-71
2022/04/13 05:51:18;;;;;;;5.88;4.57;;;12.90;97.20;;;;;;1694041;29;20204;-71
2022/04/13 05:52:09;;;;;;;5.20;4.77;;;13.00;97.20;;;;;;1694115;29;20284;-71
2022/04/13 05:53:00;;;;;;;5.57;4.45;;;13.00;97.20;;;;;;1694080;29;20238;-71
2022/04/13 05:53:52;;;;;;;5.47;4.97;;;13.00;97.20;;;;;;1694170;29;20223;-71
2022/04/13 05:54:42;;;;;;;7.28;4.53;;;13.10;97.20;;;;;;1693872;29;20639;-70
2022/04/13 05:55:34;;;;;;;5.37;4.60;;;13.10;97.20;;;;;;1694097;29;20200;-70
2022/04/13 05:56:26;;;;;;;5.43;4.50;;;13.20;97.20;;;;;;1694090;29;20257;-71
2022/04/13 05:57:18;;;;;;;4.40;4.10;;;13.20;97.20;;;;;;1694079;29;20571;-71
2022/04/13 05:58:08;;;;;;;5.68;4.45;;;13.20;97.20;;;;;;1693800;29;20207;-71
2022/04/13 05:59:00;;;;;;;7.63;4.97;;;13.30;97.20;;;;;;1693995;29;20191;-71
2022/04/13 05:59:51;;;;;;;4.82;4.43;;;13.30;97.20;;;;;;1694664;29;20200;-71
2022/04/13 06:00:43;;;;;;;5.00;4.53;;;13.30;97.20;;;;;;1695047;29;20195;-72
2022/04/13 06:01:33;;;;;;;5.28;4.53;;;13.40;97.20;;;;;;1695356;29;20299;-71
2022/04/13 06:02:26;;;;;;;5.33;4.40;;;13.40;97.20;;;;;;1695498;29;20207;-71
2022/04/13 06:03:18;;;;;;;4.65;4.25;;;13.40;97.20;;;;;;1695242;29;20199;-71
2022/04/13 06:04:10;;;;;;;4.60;4.10;;;13.50;97.20;;;;;;1695416;29;20212;-71
2022/04/13 06:05:01;;;;;;;6.15;4.30;;;13.50;97.20;;;;;;1695407;29;20203;-71
2022/04/13 06:05:53;;;;;;;5.20;4.70;;;13.60;97.20;;;;;;1695354;29;20298;-71
2022/04/13 06:06:43;;;;;;;4.82;4.43;;;13.70;97.20;;;;;;1695486;29;20577;-70
2022/04/13 06:07:35;;;;;;;5.43;3.90;;;13.70;97.20;;;;;;1695359;29;20652;-70
2022/04/13 06:08:26;;;;;;;4.10;3.80;;;13.80;97.20;;;;;;1695157;29;20207;-71
2022/04/13 06:09:18;;;;;;;5.13;4.43;;;13.80;97.20;;;;;;1693529;29;20202;-70
2022/04/13 06:10:10;;;;;;;6.70;5.25;;;13.90;97.20;;;;;;1694748;29;20223;-70
2022/04/13 06:11:02;;;;;;;3.95;3.65;;;13.90;97.20;;;;;;1695124;29;20208;-70
2022/04/13 06:11:52;;;;;;;4.50;4.10;;;14.00;97.20;;;;;;1688911;29;20275;-71
2022/04/13 06:12:44;;;;;;;4.73;4.20;;;14.00;97.20;;;;;;1688879;29;20200;-71
2022/04/13 06:13:36;;;;;;;4.72;4.30;;;14.00;97.20;;;;;;1688553;29;20516;-71
2022/04/13 06:14:27;;;;;;;4.68;4.28;;;14.10;97.20;;;;;;1694497;29;20207;-71
2022/04/13 06:15:18;;;;;;;5.20;4.05;;;14.10;97.20;;;;;;1695279;29;20207;-71
2022/04/13 06:16:10;;;;;;;5.47;4.53;;;14.10;97.20;;;;;;1695334;29;20204;-71
2022/04/13 06:17:01;;;;;;;5.00;4.60;;;14.20;97.20;;;;;;1695220;29;20455;-71
2022/04/13 06:17:54;;;;;;;4.97;4.50;;;14.20;97.20;;;;;;1695260;29;20246;-71
2022/04/13 06:18:45;;;;;;;8.43;4.38;;;14.30;97.20;;;;;;1694956;29;20483;-71
2022/04/13 06:19:37;;;;;;;6.80;4.50;;;14.30;97.20;;;;;;1695275;29;20219;-71
2022/04/13 06:20:28;;;;;;;5.05;4.30;;;14.40;97.20;;;;;;1695207;29;20230;-71
2022/04/13 06:21:19;;;;;;;4.70;4.20;;;14.40;97.20;;;;;;1695128;29;20206;-71
2022/04/13 06:22:10;;;;;;;5.10;4.60;;;14.50;97.20;;;;;;1695206;29;20479;-71
2022/04/13 06:23:02;;;;;;;4.67;4.27;;;14.50;97.20;;;;;;1693636;29;20209;-71
2022/04/13 06:23:52;;;;;;;4.80;4.40;;;14.60;97.20;;;;;;1688694;29;20248;-71
2022/04/13 06:24:44;;;;;;;5.83;4.83;;;14.60;97.20;;;;;;1688699;29;20208;-72
2022/04/13 06:25:36;;;;;;;6.88;4.75;;;14.70;97.20;;;;;;1688618;29;20456;-71
2022/04/13 06:26:27;;;;;;;5.32;4.82;;;14.70;97.20;;;;;;1688838;29;20209;-71
2022/04/13 06:27:19;;;;;;;4.87;4.30;;;14.70;97.20;;;;;;1688601;29;20710;-71
2022/04/13 06:28:11;;;;;;;4.50;4.10;;;14.80;97.20;;;;;;1688310;29;20448;-72
2022/04/13 06:29:02;;;;;;;5.43;4.65;;;14.90;97.20;;;;;;1688605;29;20228;-71
2022/04/13 06:29:53;;;;;;;5.40;4.90;;;14.90;97.20;;;;;;1688671;29;20223;-71
2022/04/13 06:30:44;;;;;;;5.50;4.75;;;14.90;97.20;;;;;;1688586;29;20263;-71
2022/04/13 06:31:36;;;;;;;6.90;5.03;;;15.00;97.20;;;;;;1688336;29;20211;-71
2022/04/13 06:32:33;;;;;;;5.13;4.72;;;15.00;97.20;;;;;;1688452;29;20212;-71
2022/04/13 06:33:26;;;;;;;6.60;5.88;;;15.10;97.20;;;;;;1688577;29;20703;-71
2022/04/13 06:34:17;;;;;;;5.22;4.72;;;15.10;97.20;;;;;;1688540;29;20215;-71
2022/04/13 06:35:12;;;;;;;7.93;5.80;;;15.20;97.20;;;;;;1691287;29;20227;-72
2022/04/13 06:36:05;;;;;;;6.60;6.03;;;15.20;97.20;;;;;;1693689;29;20239;-72
2022/04/13 06:36:57;;;;;;;5.78;5.25;;;15.30;97.20;;;;;;1695003;29;20204;-71
2022/04/13 06:37:47;;;;;;;6.30;5.63;;;15.30;97.20;;;;;;1695038;29;20203;-72
2022/04/13 06:38:40;;;;;;;6.10;5.50;;;15.30;97.20;;;;;;1693762;29;20210;-72
2022/04/13 06:39:31;;;;;;;6.70;5.55;;;15.40;97.20;;;;;;1689605;29;20216;-72
2022/04/13 06:40:23;;;;;;;7.10;5.87;;;15.40;97.20;;;;;;1694381;29;20196;-72
2022/04/13 06:41:13;;;;;;;6.78;6.10;;;15.50;97.20;;;;;;1694385;29;20227;-72
2022/04/13 06:42:06;;;;;;;9.23;6.20;;;15.50;97.20;;;;;;1691657;29;20195;-72
2022/04/13 06:42:57;;;;;;;6.60;5.60;;;15.50;97.20;;;;;;1695069;29;20668;-72
2022/04/13 06:43:49;;;;;;;6.93;5.13;;;15.60;97.20;;;;;;1694988;29;20746;-71
2022/04/13 06:44:39;;;;;;;6.40;5.30;;;15.60;97.20;;;;;;1695160;29;20463;-72
2022/04/13 06:45:31;;;;;;;6.90;4.87;;;15.70;97.20;;;;;;1693684;29;20656;-72
2022/04/13 06:46:22;;;;;;;5.53;4.93;;;15.70;97.20;;;;;;1695066;29;20568;-72
2022/04/13 06:47:14;;;;;;;6.07;4.43;;;15.70;97.20;;;;;;1694324;29;20200;-72
2022/04/13 06:48:07;;;;;;;7.53;4.50;;;15.80;97.20;;;;;;1694883;29;20214;-72
2022/04/13 06:49:00;;;;;;;4.85;4.30;;;15.80;97.20;;;;;;1695233;29;20673;-72
2022/04/13 06:49:51;;;;;;;4.97;4.00;;;15.90;97.20;;;;;;1695000;29;20279;-72
2022/04/13 06:50:42;;;;;;;5.67;4.03;;;15.90;97.20;;;;;;1694996;29;20211;-72
2022/04/13 06:51:33;;;;;;;4.28;3.88;;;15.90;97.20;;;;;;1694998;29;20255;-72
2022/04/13 06:52:25;;;;;;;5.87;3.60;;;16.00;97.20;;;;;;1695138;29;20207;-72
2022/04/13 06:53:17;;;;;;;4.45;3.90;;;16.00;97.20;;;;;;1694830;29;20667;-72
2022/04/13 06:54:09;;;;;;;4.95;4.45;;;16.10;97.20;;;;;;1695023;29;20275;-72
2022/04/13 06:55:00;;;;;;;6.38;4.10;;;16.10;97.20;;;;;;1694982;29;20240;-72
2022/04/13 06:55:51;;;;;;;4.63;4.17;;;16.20;97.20;;;;;;1695017;29;20219;-72
2022/04/13 06:56:42;;;;;;;3.70;3.40;;;16.20;97.20;;;;;;1694909;29;20490;-72
2022/04/13 06:57:37;;;;;;;5.00;4.50;;;16.30;97.20;;;;;;1694926;29;20208;-72
2022/04/13 06:58:28;;;;;;;6.13;3.90;;;16.30;97.20;;;;;;1694024;29;20203;-72
2022/04/13 06:59:19;;;;;;;7.03;5.17;;;16.30;97.20;;;;;;1692545;29;20199;-72
2022/04/13 07:00:13;;;;;;;8.63;5.65;;;16.40;97.20;;;;;;1695944;29;20212;-72
2022/04/13 07:01:04;;;;;;;9.07;5.75;;;16.40;97.20;;;;;;1694737;29;20197;-72
2022/04/13 07:01:55;;;;;;;9.20;5.67;;;16.50;97.20;;;;;;1694725;29;20204;-72
2022/04/13 07:02:46;;;;;;;9.45;5.88;;;16.50;97.20;;;;;;1695717;29;20244;-72
2022/04/13 07:03:38;;;;;;;8.60;5.80;;;16.60;97.20;;;;;;1701346;29;20702;-71
2022/04/13 07:04:30;;;;;;;11.90;5.28;;;16.60;97.20;;;;;;1701433;29;20584;-72
2022/04/13 07:05:22;;;;;;;9.45;5.45;;;16.70;97.20;;;;;;1701398;29;20242;-72
2022/04/13 07:06:13;;;;;;;6.45;5.00;;;16.70;97.20;;;;;;1695108;29;20243;-72
2022/04/13 07:07:04;;;;;;;8.00;4.90;;;16.70;97.20;;;;;;1688721;29;20228;-71
2022/04/13 07:07:57;;;;;;;6.33;5.17;;;16.80;97.20;;;;;;1688294;29;20204;-72
2022/04/13 07:08:47;;;;;;;11.07;4.78;;;16.80;97.20;;;;;;1688124;29;20249;-72
2022/04/13 07:09:39;;;;;;;7.77;4.97;;;16.90;97.20;;;;;;1688196;29;20212;-72
2022/04/13 07:10:30;;;;;;;7.00;4.03;;;16.90;97.20;;;;;;1687857;29;20797;-72
2022/04/13 07:11:22;;;;;;;6.72;4.60;;;17.00;97.20;;;;;;1688309;29;20320;-71
2022/04/13 07:12:13;;;;;;;6.10;4.35;;;17.00;97.20;;;;;;1688391;29;20245;-72
2022/04/13 07:13:05;;;;;;;4.77;4.20;;;17.00;97.20;;;;;;1688396;29;20212;-72
2022/04/13 07:13:56;;;;;;;7.15;4.40;;;17.10;97.20;;;;;;1688026;29;20699;-72
2022/04/13 07:14:47;;;;;;;6.17;4.00;;;17.10;97.20;;;;;;1688185;29;20688;-72
2022/04/13 07:15:38;;;;;;;5.22;4.72;;;17.20;97.20;;;;;;1687620;29;20464;-72
2022/04/13 07:16:30;;;;;;;5.00;4.50;;;17.20;97.20;;;;;;1687701;29;20214;-72
2022/04/13 07:17:21;;;;;;;4.75;4.00;;;17.20;97.20;;;;;;1688929;29;20484;-72
2022/04/13 07:18:13;;;;;;;7.80;5.03;;;17.30;97.20;;;;;;1693214;29;20196;-72
2022/04/13 07:19:03;;;;;;;6.35;4.70;;;17.30;97.20;;;;;;1694050;29;20215;-71
2022/04/13 07:19:56;;;;;;;6.77;5.20;;;17.40;97.20;;;;;;1694285;29;20202;-72
2022/04/13 07:20:47;;;;;;;6.60;4.50;;;17.40;97.20;;;;;;1694385;29;20226;-72
2022/04/13 07:21:39;;;;;;;7.90;5.03;;;17.50;97.20;;;;;;1694207;29;20192;-72
2022/04/13 07:22:30;;;;;;;6.65;5.20;;;17.50;97.20;;;;;;1693680;29;20204;-72
2022/04/13 07:23:21;;;;;;;6.43;4.67;;;17.60;97.20;;;;;;1693888;29;20279;-72
2022/04/13 07:24:12;;;;;;;4.28;3.88;;;17.70;97.20;;;;;;1694164;29;20203;-72
2022/04/13 07:25:05;;;;;;;8.00;5.00;;;17.80;97.20;;;;;;1694328;29;20200;-72
2022/04/13 07:25:55;;;;;;;4.50;4.10;;;17.90;97.20;;;;;;1694020;29;20207;-72
2022/04/13 07:26:47;;;;;;;5.50;5.00;;;17.90;97.20;;;;;;1694258;29;20203;-72
2022/04/13 07:27:38;;;;;;;6.85;4.25;;;18.00;97.20;;;;;;1694228;29;20207;-72
2022/04/13 07:28:30;;;;;;;6.07;4.47;;;18.10;97.20;;;;;;1694102;29;20242;-72
2022/04/13 07:29:21;;;;;;;6.95;4.97;;;18.20;97.20;;;;;;1691618;29;20749;-72
2022/04/13 07:30:14;;;;;;;5.20;4.80;;;18.20;97.20;;;;;;1694293;29;20746;-72
2022/04/13 07:31:04;;;;;;;5.07;4.60;;;18.30;97.20;;;;;;1694278;29;20546;-72
2022/04/13 07:31:56;;;;;;;8.10;4.10;;;18.40;97.20;;;;;;1694186;29;20196;-72
2022/04/13 07:32:51;;;;;;;6.50;4.80;;;18.50;97.20;;;;;;1694397;29;20206;-72
2022/04/13 07:33:42;;;;;;;6.28;4.55;;;18.60;97.20;;;;;;1691685;29;20212;-72
2022/04/13 07:34:34;;;;;;;14.90;5.68;;;18.70;97.20;;;;;;1694198;29;20207;-72
2022/04/13 07:35:27;;;;;;;9.65;5.75;;;18.70;97.20;;;;;;1694420;29;20275;-72
2022/04/13 07:36:18;;;;;;;9.90;4.80;;;18.80;97.20;;;;;;1693944;29;20208;-72
2022/04/13 07:37:09;;;;;;;7.50;6.80;;;18.80;97.20;;;;;;1694272;29;20314;-72
2022/04/13 07:38:00;;;;;;;13.43;5.82;;;18.90;97.20;;;;;;1694096;29;20451;-72
2022/04/13 07:38:52;;;;;;;6.47;5.77;;;19.00;97.20;;;;;;1694258;29;20208;-72
2022/04/13 07:39:43;;;;;;;7.28;6.10;;;19.00;97.20;;;;;;1694209;29;20444;-72
2022/04/13 07:40:35;;;;;;;13.30;5.90;;;19.00;97.20;;;;;;1694135;29;20235;-72
2022/04/13 07:41:25;;;;;;;10.55;5.43;;;19.00;97.20;;;;;;1694363;29;20966;-72
2022/04/13 07:42:21;;;;;;;5.67;5.17;;;19.10;97.20;;;;;;1694118;29;20632;-72
2022/04/13 07:43:13;;;;;;;7.95;6.57;;;19.10;97.20;;;;;;1694139;29;20239;-72
2022/04/13 07:44:06;;;;;;;8.18;6.97;;;19.10;97.20;;;;;;1694310;29;20665;-72
2022/04/13 07:44:57;;;;;;;7.22;6.50;;;19.10;97.20;;;;;;1694169;29;20246;-72
2022/04/13 07:45:48;;;;;;;11.13;6.25;;;19.10;97.20;;;;;;1694377;29;20203;-72
2022/04/13 07:46:40;;;;;;;7.30;6.47;;;19.10;97.20;;;;;;1694134;29;20199;-72
2022/04/13 07:47:31;;;;;;;11.88;7.13;;;19.10;97.20;;;;;;1694360;29;20293;-72
2022/04/13 07:48:23;;;;;;;7.15;6.43;;;19.20;97.20;;;;;;1691516;29;20196;-72
2022/04/13 07:49:14;;;;;;;14.75;7.85;;;19.20;97.20;;;;;;1694189;29;20200;-72
2022/04/13 07:50:07;;;;;;;7.87;7.07;;;19.20;97.20;;;;;;1694247;29;20283;-72
2022/04/13 07:51:00;;;;;;;9.75;7.43;;;19.20;97.20;;;;;;1694005;29;20204;-72
2022/04/13 07:51:51;;;;;;;10.25;7.07;;;19.30;97.20;;;;;;1694218;29;20204;-71
2022/04/13 07:52:42;;;;;;;8.70;6.50;;;19.30;97.20;;;;;;1690273;29;20220;-72
2022/04/13 07:53:34;;;;;;;10.47;6.60;;;19.40;97.20;;;;;;1693955;29;20298;-72
2022/04/13 07:54:25;;;;;;;7.15;6.45;;;19.50;97.20;;;;;;1694004;29;20938;-72
2022/04/13 07:55:16;;;;;;;8.30;5.80;;;19.50;97.20;;;;;;1694144;29;20247;-72
2022/04/13 07:56:08;;;;;;;10.55;6.20;;;19.50;97.20;;;;;;1694156;29;20207;-72
2022/04/13 07:56:59;;;;;;;10.25;6.35;;;19.60;97.20;;;;;;1694104;29;20296;-72
2022/04/13 07:57:51;;;;;;;7.43;6.13;;;19.70;97.20;;;;;;1694006;29;20220;-72
2022/04/13 07:58:42;;;;;;;9.30;6.60;;;19.80;97.20;;;;;;1693796;29;20211;-72
2022/04/13 07:59:34;;;;;;;7.32;6.03;;;19.80;97.20;;;;;;1691520;29;20207;-72
2022/04/13 08:00:25;;;;;;;6.63;5.93;;;19.90;97.20;;;;;;1694111;29;20227;-72
2022/04/13 08:01:16;;;;;;;8.40;6.30;;;20.00;97.20;;;;;;1694197;29;20196;-72
2022/04/13 08:02:07;;;;;;;7.00;5.80;;;20.20;97.20;;;;;;1694186;29;20455;-72
2022/04/13 08:02:59;;;;;;;10.30;5.57;;;20.30;97.20;;;;;;1694033;29;20742;-72
2022/04/13 08:03:50;;;;;;;10.93;6.55;;;20.40;97.20;;;;;;1693950;29;20227;-72
2022/04/13 08:04:42;;;;;;;11.43;5.67;;;20.50;97.20;;;;;;1694189;29;20207;-72
2022/04/13 08:05:34;;;;;;;7.45;6.32;;;20.60;97.20;;;;;;1694033;29;20660;-72
2022/04/13 08:06:26;;;;;;;8.80;5.90;;;20.70;97.20;;;;;;1694082;29;20211;-72
2022/04/13 08:07:17;;;;;;;9.55;5.22;;;20.80;97.20;;;;;;1694086;29;20566;-72
2022/04/13 08:08:09;;;;;;;10.40;6.13;;;20.90;97.20;;;;;;1693790;29;20699;-72
2022/04/13 08:09:00;;;;;;;12.30;6.40;;;20.90;97.20;;;;;;1693398;29;20223;-72
2022/04/13 08:09:54;;;;;;;8.67;5.67;;;21.10;97.20;;;;;;1694024;29;20286;-72
2022/04/13 08:10:46;;;;;;;9.63;5.70;;;21.20;97.20;;;;;;1694011;29;20230;-72
2022/04/13 08:11:37;;;;;;;7.55;5.68;;;21.30;97.20;;;;;;1693910;29;20227;-72
2022/04/13 08:12:29;;;;;;;7.88;6.57;;;21.40;97.20;;;;;;1694038;29;20204;-72
2022/04/13 08:13:21;;;;;;;10.05;6.07;;;21.50;97.20;;;;;;1693940;29;20759;-72
2022/04/13 08:14:12;;;;;;;9.07;5.50;;;21.50;97.20;;;;;;1693989;29;20211;-72
2022/04/13 08:15:05;;;;;;;8.20;5.03;;;21.60;97.20;;;;;;1693967;29;20652;-72
2022/04/13 08:15:56;;;;;;;13.82;5.30;;;21.70;97.20;;;;;;1691836;29;20971;-72
2022/04/13 08:16:47;;;;;;;9.73;6.13;;;21.80;97.20;;;;;;1694084;29;20562;-72
2022/04/13 08:17:39;;;;;;;9.40;5.20;;;21.90;97.20;;;;;;1693924;29;20200;-72
2022/04/13 08:18:31;;;;;;;8.25;4.78;;;22.00;97.20;;;;;;1693660;29;20250;-72
2022/04/13 08:19:23;;;;;;;4.75;4.13;;;22.00;97.20;;;;;;1693968;29;20698;-72
2022/04/13 08:20:14;;;;;;;8.23;4.05;;;22.10;97.20;;;;;;1691580;29;20251;-72
2022/04/13 08:21:06;;;;;;;7.90;3.85;;;22.20;97.20;;;;;;1693934;29;20200;-72
2022/04/13 08:21:59;;;;;;;6.47;3.70;;;22.30;97.20;;;;;;1693173;29;20207;-72
2022/04/13 08:22:50;;;;;;;14.65;4.03;;;22.40;97.20;;;;;;1693926;29;20211;-72
2022/04/13 08:23:42;;;;;;;7.63;4.40;;;22.50;97.20;;;;;;1693839;29;20306;-72
2022/04/13 08:24:33;;;;;;;7.28;4.00;;;22.60;97.20;;;;;;1693683;29;20638;-72
2022/04/13 08:25:24;;;;;;;10.67;4.53;;;22.60;97.20;;;;;;1693922;29;20301;-73
2022/04/13 08:26:15;;;;;;;4.93;3.10;;;22.70;97.20;;;;;;1693922;29;20196;-72
2022/04/13 08:27:09;;;;;;;4.97;2.73;;;22.70;97.00;;;;;;1694002;29;20200;-72
2022/04/13 08:28:00;;;;;;;5.65;2.70;;;22.80;96.20;;;;;;1694024;29;20284;-73
2022/04/13 08:28:51;;;;;;;4.07;2.90;;;22.80;95.10;;;;;;1693864;29;20236;-72
2022/04/13 08:29:43;;;;;;;4.07;2.40;;;22.90;94.10;;;;;;1693878;29;20207;-72
2022/04/13 08:30:35;;;;;;;5.30;3.10;;;22.90;93.90;;;;;;1691436;29;20290;-73
2022/04/13 08:31:25;;;;;;;7.60;3.15;;;23.00;94.10;;;;;;1693798;29;20208;-73
2022/04/13 08:32:18;;;;;;;9.23;2.97;;;23.00;94.40;;;;;;1693967;29;20743;-72
2022/04/13 08:33:09;;;;;;;7.07;3.83;;;23.10;94.50;;;;;;1693846;29;20204;-72
2022/04/13 08:34:01;;;;;;;4.43;3.20;;;23.20;94.70;;;;;;1693770;29;20200;-72
2022/04/13 08:34:52;;;;;;;4.35;3.40;;;23.30;94.40;;;;;;1694219;29;20328;-72
2022/04/13 08:35:44;;;;;;;5.15;3.05;;;23.30;94.00;;;;;;1694253;29;20207;-72
2022/04/13 08:36:34;;;;;;;8.52;4.35;;;23.40;93.10;;;;;;1694360;29;20242;-72
2022/04/13 08:37:29;;;;;;;9.83;5.67;;;23.50;93.20;;;;;;1694359;29;20212;-72
2022/04/13 08:38:20;;;;;;;9.88;6.07;;;23.50;93.90;;;;;;1693938;29;20232;-72
2022/04/13 08:39:14;;;;;;;8.40;4.40;;;23.60;94.40;;;;;;1694356;29;20239;-72
2022/04/13 08:40:05;;;;;;;7.22;3.65;;;23.60;94.20;;;;;;1694360;29;20208;-73
2022/04/13 08:41:00;;;;;;;6.93;4.32;;;23.70;94.00;;;;;;1693061;29;20665;-72
2022/04/13 08:41:57;;;;;;;5.65;4.30;;;23.80;94.10;;;;;;1693880;29;20207;-72
2022/04/13 08:42:57;;;;;;;9.27;4.47;;;23.90;93.90;;;;;;1693999;29;20731;-72
2022/04/13 08:43:51;;;;;;;7.82;4.43;;;24.00;94.10;;;;;;1693802;29;20231;-72
2022/04/13 08:44:50;;;;;;;5.13;4.07;;;24.10;94.10;;;;;;1693796;29;20253;-72
2022/04/13 08:45:47;;;;;;;8.65;4.25;;;24.10;94.00;;;;;;1692249;29;20698;-73
2022/04/13 08:46:39;;;;;;;7.28;4.10;;;24.20;94.10;;;;;;1691876;29;20203;-73
2022/04/13 08:47:37;;;;;;;9.13;4.53;;;24.30;93.50;;;;;;1693797;29;20230;-72
2022/04/13 08:48:28;;;;;;;5.38;4.10;;;24.40;93.10;;;;;;1693569;29;20203;-72
2022/04/13 08:49:20;;;;;;;7.15;4.00;;;24.40;92.10;;;;;;1693749;29;20311;-73
2022/04/13 08:50:12;;;;;;;5.05;4.00;;;24.50;91.60;;;;;;1693811;29;20200;-72
2022/04/13 08:51:06;;;;;;;7.20;4.20;;;24.50;91.90;;;;;;1693865;29;20234;-72
2022/04/13 08:52:02;;;;;;;10.45;4.70;;;24.60;92.00;;;;;;1691642;29;20223;-72
2022/04/13 08:53:00;;;;;;;15.90;4.90;;;24.60;91.60;;;;;;1693749;29;20264;-72
2022/04/13 08:54:01;;;;;;;6.75;4.10;;;24.70;91.10;;;;;;1693702;29;20228;-72
2022/04/13 08:55:02;;;;;;;7.85;3.45;;;24.80;90.70;;;;;;1693784;29;20204;-72
2022/04/13 08:55:54;;;;;;;9.63;3.83;;;24.80;90.10;;;;;;1693860;29;20224;-72
2022/04/13 08:56:48;;;;;;;8.68;3.80;;;24.90;90.20;;;;;;1693668;29;20200;-72
2022/04/13 08:57:41;;;;;;;9.35;4.45;;;25.00;90.10;;;;;;1693166;29;20215;-73
2022/04/13 08:58:41;;;;;;;6.22;4.10;;;25.00;90.20;;;;;;1693405;29;20240;-72
2022/04/13 08:59:41;;;;;;;9.90;4.53;;;25.10;90.20;;;;;;1693656;29;20626;-72
2022/04/13 09:00:36;;;;;;;6.65;3.85;;;25.20;90.40;;;;;;1693722;29;20683;-72
2022/04/13 09:01:36;;;;;;;6.80;3.58;;;25.30;90.90;;;;;;1693729;29;20200;-72
2022/04/13 09:02:50;;;;;;;6.90;3.75;;;25.40;90.40;;;;;;1693730;29;20266;-72
2022/04/13 09:03:45;;;;;;;6.57;4.32;;;25.50;89.70;;;;;;1686216;29;20777;-72
2022/04/13 09:04:41;;;;;;;5.95;4.10;;;25.60;89.50;;;;;;1691316;29;20208;-72
2022/04/13 09:05:34;;;;;;;7.95;4.55;;;25.70;89.70;;;;;;1691460;29;20204;-72
2022/04/13 09:06:28;;;;;;;6.35;3.80;;;25.80;89.90;;;;;;1693722;29;20253;-72
2022/04/13 09:07:19;;;;;;;7.45;3.75;;;25.90;90.00;;;;;;1693681;29;20207;-72
2022/04/13 09:08:17;;;;;;;9.33;4.27;;;26.00;89.70;;;;;;1690863;29;20203;-72
2022/04/13 09:09:15;;;;;;;8.25;3.95;;;26.10;88.50;;;;;;1693621;29;20474;-72
2022/04/13 09:10:10;;;;;;;8.10;4.18;;;26.20;88.10;;;;;;1693708;29;20207;-72
2022/04/13 09:11:05;;;;;;;6.70;3.90;;;26.30;88.30;;;;;;1693559;29;20200;-72
2022/04/13 09:11:57;;;;;;;5.25;3.20;;;26.50;87.90;;;;;;1693620;29;20287;-72
2022/04/13 09:12:51;;;;;;;4.05;2.90;;;26.60;87.20;;;;;;1693511;29;20203;-72
2022/04/13 09:13:44;;;;;;;5.13;3.03;;;26.80;87.00;;;;;;1693354;29;20258;-72
2022/04/13 09:14:38;;;;;;;4.93;3.15;;;27.00;86.30;;;;;;1694164;29;20266;-72
2022/04/13 09:15:29;;;;;;;6.72;3.65;;;27.40;86.10;;;;;;1694197;29;20230;-72
2022/04/13 09:16:21;;;;;;;7.33;3.40;;;28.10;85.60;;;;;;1694148;29;20204;-72
2022/04/13 09:17:12;;;;;;;4.25;3.20;;;28.70;84.90;;;;;;1694169;29;20451;-72
2022/04/13 09:18:04;;;;;;;5.20;3.38;;;29.30;83.90;;;;;;1693860;29;20204;-73
2022/04/13 09:18:55;;;;;;;6.65;3.70;;;29.70;83.20;;;;;;1694223;29;20671;-73
2022/04/13 09:19:47;;;;;;;8.38;3.60;;;30.00;82.00;;;;;;1693958;29;20223;-72
2022/04/13 09:20:39;;;;;;;8.88;3.90;;;30.40;80.40;;;;;;1693974;29;20199;-72
2022/04/13 09:21:32;;;;;;;13.65;3.33;;;30.80;79.70;;;;;;1694079;29;20240;-72
2022/04/13 09:22:24;;;;;;;7.00;3.80;;;31.30;79.00;;;;;;1694154;29;20686;-72
2022/04/13 09:23:17;;;;;;;9.68;3.53;;;31.80;78.20;;;;;;1694080;29;20579;-72
2022/04/13 09:24:10;;;;;;;6.47;3.50;;;32.30;77.60;;;;;;1694183;29;20245;-73
2022/04/13 09:25:02;;;;;;;7.40;3.85;;;32.70;76.80;;;;;;1694043;29;20208;-72
2022/04/13 09:25:55;;;;;;;6.38;3.42;;;33.10;76.20;;;;;;1694096;29;20570;-72
2022/04/13 09:26:46;;;;;;;4.85;3.13;;;33.30;75.70;;;;;;1694141;29;20212;-73
2022/04/13 09:27:39;;;;;;;5.65;3.40;;;33.60;75.40;;;;;;1694093;29;20231;-73
2022/04/13 09:28:30;;;;;;;4.68;3.45;;;33.90;75.00;;;;;;1693742;29;20239;-73
2022/04/13 09:29:22;;;;;;;9.03;3.77;;;34.10;74.50;;;;;;1692511;29;20207;-72
2022/04/13 09:30:13;;;;;;;4.15;3.17;;;34.30;73.70;;;;;;1692710;29;20834;-73
2022/04/13 09:31:05;;;;;;;5.93;4.00;;;34.50;73.10;;;;;;1687650;29;20590;-73